Time;durP1;ratioP1;P1;durP2;ratioP2;P2;SDS_P1;SDS_P2;PMS_P1;PMS_P2;Temp;Humidity;BMP_temperature;BMP_pressure;BME280_temperature;BME280_humidity;BME280_pressure;Samples;Min_cycle;Max_cycle;Signal;HPM_P1;HPM_P2
2023/10/24 00:00:03;;;;;;;6.77;5.50;;;11.80;99.90;;;-141.84;86.00;15385.81;4976404;28;20227;-67
2023/10/24 00:02:32;;;;;;;6.93;5.03;;;11.80;99.90;;;-141.84;85.61;15483.25;4984965;28;20234;-67
2023/10/24 00:05:00;;;;;;;5.43;4.67;;;11.80;99.90;;;-141.84;85.82;15414.25;4984833;28;20257;-67
2023/10/24 00:07:28;;;;;;;8.87;5.17;;;11.80;99.90;;;-141.84;86.26;15310.72;4984269;28;20223;-68
2023/10/24 00:09:56;;;;;;;7.60;5.07;;;11.70;99.90;;;-141.84;86.17;15326.94;4982438;28;20481;-66
2023/10/24 00:12:25;;;;;;;6.60;4.90;;;11.80;99.90;;;-141.84;86.12;15335.06;4982275;28;20211;-67
2023/10/24 00:14:55;;;;;;;9.23;5.35;;;11.70;99.90;;;-141.84;86.49;15284.31;4984283;28;20652;-67
2023/10/24 00:17:24;;;;;;;6.90;5.17;;;11.70;99.90;;;-141.84;86.30;15302.59;4985086;28;20273;-68
2023/10/24 00:19:52;;;;;;;7.17;5.10;;;11.70;99.90;;;-141.84;86.41;15310.72;4984395;28;20237;-66
2023/10/24 00:22:21;;;;;;;6.22;4.85;;;11.70;99.90;;;-141.84;85.75;15442.66;4977789;28;20333;-68
2023/10/24 00:24:49;;;;;;;5.17;4.60;;;11.80;99.90;;;-141.84;85.26;15531.97;4984007;28;20207;-66
2023/10/24 00:27:17;;;;;;;8.83;4.90;;;11.80;99.90;;;-141.84;85.40;15503.56;4984895;28;20301;-68
2023/10/24 00:29:45;;;;;;;7.68;5.03;;;11.80;99.90;;;-141.84;85.46;15531.97;4983975;28;20259;-67
2023/10/24 00:32:15;;;;;;;8.47;4.80;;;11.80;99.90;;;-141.84;84.05;15909.59;4976755;28;20327;-67
2023/10/24 00:34:43;;;;;;;4.87;4.07;;;11.80;99.90;;;-141.84;84.19;15795.91;4983869;28;20258;-67
2023/10/24 00:37:11;;;;;;;6.57;4.80;;;11.90;99.90;;;-141.84;84.62;15735.00;4983534;28;20223;-69
2023/10/24 00:39:40;;;;;;;6.93;4.70;;;11.80;99.90;;;-141.84;84.91;15639.59;4984755;28;20208;-66
2023/10/24 00:42:08;;;;;;;7.63;4.53;;;11.80;99.90;;;-141.84;85.58;15395.97;4996260;28;20594;-68
2023/10/24 00:44:36;;;;;;;8.20;5.07;;;11.80;99.90;;;-141.84;86.37;15308.69;5003161;28;20681;-67
2023/10/24 00:47:05;;;;;;;6.20;4.37;;;11.80;99.90;;;-141.84;86.55;15284.31;4986153;28;20258;-67
2023/10/24 00:49:34;;;;;;;5.50;4.50;;;11.80;99.90;;;-141.84;86.07;15400.03;4983614;28;20271;-66
2023/10/24 00:52:03;;;;;;;6.07;4.33;;;11.80;99.90;;;-141.84;84.89;15615.22;4975389;28;20231;-67
2023/10/24 00:54:35;;;;;;;5.65;4.70;;;11.80;99.90;;;-141.84;84.05;15814.19;4984936;28;20207;-67
2023/10/24 00:57:06;;;;;;;7.57;4.40;;;11.80;99.90;;;-141.84;83.81;15968.50;4983864;28;20780;-67
2023/10/24 00:59:34;;;;;;;5.00;4.17;;;11.80;99.90;;;-141.84;84.32;15787.78;4983945;28;20313;-67
2023/10/24 01:02:03;;;;;;;7.70;4.90;;;11.80;99.90;;;-141.84;84.16;15848.69;4975765;28;20360;-67
2023/10/24 01:04:35;;;;;;;8.95;5.00;;;11.80;99.90;;;-141.84;83.50;16043.59;4983377;28;20228;-67
2023/10/24 01:07:04;;;;;;;5.80;4.50;;;11.80;99.90;;;-141.84;82.91;16299.44;4982987;28;24169;-66
2023/10/24 01:09:32;;;;;;;8.67;4.90;;;11.90;99.90;;;-141.84;83.66;16011.13;4984467;28;20265;-68
2023/10/24 01:12:00;;;;;;;7.00;4.53;;;11.90;99.90;;;-141.84;84.40;15789.81;4976919;28;20326;-66
2023/10/24 01:14:29;;;;;;;6.30;4.57;;;11.80;99.90;;;-141.84;85.24;15574.63;4983873;28;20666;-67
2023/10/24 01:16:57;;;;;;;8.30;4.73;;;11.80;99.90;;;-141.84;85.84;15414.25;4983699;28;20285;-66
2023/10/24 01:19:26;;;;;;;8.40;4.32;;;11.80;99.90;;;-141.84;85.82;15377.69;4983852;28;20254;-66
2023/10/24 01:21:56;;;;;;;7.87;5.10;;;11.80;99.90;;;-141.84;85.50;15485.28;4982909;28;20212;-66
2023/10/24 01:24:24;;;;;;;6.10;5.10;;;11.80;99.90;;;-141.84;84.88;15623.34;4977738;28;20219;-66
2023/10/24 01:26:57;;;;;;;6.07;4.60;;;11.80;99.90;;;-141.84;84.56;15665.97;4982267;28;20780;-66
2023/10/24 01:29:25;;;;;;;12.88;5.18;;;11.80;99.90;;;-141.84;84.55;15696.44;4982936;28;20396;-67
2023/10/24 01:31:53;;;;;;;9.07;5.10;;;11.80;99.90;;;-141.84;84.35;15771.53;4982282;28;20803;-66
2023/10/24 01:34:22;;;;;;;7.10;4.65;;;11.80;99.90;;;-141.84;84.41;15763.44;4977587;28;20243;-66
2023/10/24 01:36:51;;;;;;;4.97;4.40;;;11.80;99.90;;;-141.84;84.24;15795.91;4982142;28;20691;-67
2023/10/24 01:39:21;;;;;;;8.07;4.80;;;11.80;99.90;;;-141.84;84.14;15826.38;4972846;28;20565;-66
2023/10/24 01:41:49;;;;;;;7.40;4.50;;;11.80;99.90;;;-141.84;84.55;15706.59;4983500;28;20637;-67
2023/10/24 01:44:17;;;;;;;5.70;4.70;;;11.80;99.90;;;-141.84;85.05;15586.81;4976434;28;20685;-67
2023/10/24 01:46:45;;;;;;;7.87;4.63;;;11.80;99.90;;;-141.84;85.24;15487.31;4983382;28;20835;-67
2023/10/24 01:49:14;;;;;;;9.73;5.07;;;11.80;99.90;;;-141.84;85.05;15519.81;4983079;28;20223;-66
2023/10/24 01:51:42;;;;;;;6.72;4.75;;;11.80;99.90;;;-141.84;84.46;15696.44;4982826;28;20302;-65
2023/10/24 01:54:10;;;;;;;5.97;4.57;;;11.80;99.90;;;-141.84;84.41;15769.53;4975512;28;20282;-65
2023/10/24 01:56:40;;;;;;;6.77;5.00;;;11.80;99.90;;;-141.84;84.44;15737.03;4983055;28;20338;-67
2023/10/24 01:59:08;;;;;;;6.68;4.97;;;11.80;99.90;;;-141.84;84.39;15751.25;4987085;28;20645;-66
2023/10/24 02:01:37;;;;;;;5.50;4.10;;;11.80;99.90;;;-141.84;84.48;15678.16;4986882;28;20662;-67
2023/10/24 02:04:06;;;;;;;5.50;4.30;;;11.90;99.90;;;-141.84;85.36;15483.25;4979293;28;20241;-66
2023/10/24 02:06:35;;;;;;;7.67;5.40;;;11.80;99.90;;;-141.84;85.91;15369.56;4987640;28;20277;-67
2023/10/24 02:09:03;;;;;;;7.33;5.17;;;11.80;99.90;;;-141.84;86.16;15369.56;4986146;28;20219;-66
2023/10/24 02:11:31;;;;;;;7.67;5.20;;;11.80;99.90;;;-141.84;85.57;15442.66;4986720;28;20274;-66
2023/10/24 02:14:01;;;;;;;5.20;4.70;;;11.80;99.90;;;-141.84;86.31;15353.34;4979845;28;20655;-66
2023/10/24 02:16:29;;;;;;;5.77;4.87;;;11.70;99.90;;;-141.84;86.66;15233.56;4986811;28;20653;-67
2023/10/24 02:18:57;;;;;;;8.57;4.70;;;11.80;99.90;;;-141.84;86.78;15227.47;4986275;28;20642;-66
2023/10/24 02:21:25;;;;;;;6.20;4.77;;;11.80;99.90;;;-141.84;87.14;15221.38;4986602;28;20769;-67
2023/10/24 02:23:53;;;;;;;10.05;5.78;;;11.80;99.90;;;-141.84;87.03;15211.25;4985979;28;20234;-67
2023/10/24 02:26:22;;;;;;;7.20;4.90;;;11.80;99.90;;;-141.84;87.25;15223.41;4981702;28;20263;-67
2023/10/24 02:28:50;;;;;;;7.07;4.97;;;11.80;99.90;;;-141.84;87.28;15213.28;4987157;28;20326;-66
2023/10/24 02:31:19;;;;;;;8.63;5.13;;;11.80;99.90;;;-141.84;87.42;15249.81;4986374;28;20230;-66
2023/10/24 02:33:48;;;;;;;6.80;5.05;;;11.80;99.90;;;-141.84;87.73;15174.69;4986650;28;20242;-66
2023/10/24 02:36:16;;;;;;;6.03;4.72;;;11.80;99.90;;;-141.84;88.01;15109.75;4978789;28;20213;-66
2023/10/24 02:38:44;;;;;;;6.45;5.35;;;11.70;99.90;;;-141.84;87.84;15174.69;4985412;28;20227;-66
2023/10/24 02:41:13;;;;;;;8.68;5.05;;;11.70;99.90;;;-141.84;87.82;15162.53;4986920;28;20603;-66
2023/10/24 02:43:41;;;;;;;6.53;4.97;;;11.70;99.90;;;-141.84;87.70;15170.63;4986651;28;20741;-66
2023/10/24 02:46:10;;;;;;;6.35;5.13;;;11.80;99.90;;;-141.84;87.99;15142.22;4978922;28;20245;-66
2023/10/24 02:48:39;;;;;;;7.65;5.05;;;11.70;99.90;;;-141.84;87.88;15168.63;4986674;28;20219;-66
2023/10/24 02:51:07;;;;;;;7.80;5.40;;;11.70;99.90;;;-141.84;87.84;15166.59;4986270;28;20430;-67
2023/10/24 02:53:36;;;;;;;10.32;5.28;;;11.70;99.90;;;-141.84;87.86;15182.81;4985134;28;20281;-67
2023/10/24 02:56:04;;;;;;;6.70;4.97;;;11.70;99.90;;;-141.84;87.93;15178.75;4978449;28;20802;-66
2023/10/24 02:58:33;;;;;;;10.23;5.00;;;11.70;99.90;;;-141.84;87.93;15162.53;4985979;28;20651;-66
2023/10/24 03:01:04;;;;;;;6.90;5.07;;;11.70;99.90;;;-141.84;88.09;15130.03;4986044;28;20702;-66
2023/10/24 03:03:33;;;;;;;7.32;5.28;;;11.70;99.90;;;-141.84;88.20;15138.16;4986201;28;20698;-66
2023/10/24 03:06:13;;;;;;;6.47;5.50;;;11.70;99.90;;;-141.84;88.08;15150.34;4977883;28;20231;-67
2023/10/24 03:08:42;;;;;;;6.47;4.93;;;11.70;99.90;;;-141.84;88.39;15134.09;4984225;28;20231;-66
2023/10/24 03:11:10;;;;;;;6.63;5.10;;;11.70;99.90;;;-141.84;88.26;15158.47;4987035;28;20235;-67
2023/10/24 03:13:39;;;;;;;5.43;4.90;;;11.70;99.90;;;-141.84;88.52;15109.75;4985926;28;20251;-66
2023/10/24 03:16:07;;;;;;;8.38;5.28;;;11.60;99.90;;;-141.84;88.88;15113.81;4980141;28;20227;-67
2023/10/24 03:18:35;;;;;;;6.40;4.93;;;11.60;99.90;;;-141.84;88.33;15138.16;4986189;28;20207;-67
2023/10/24 03:21:05;;;;;;;7.60;5.73;;;11.70;99.90;;;-141.84;88.33;15132.06;4985605;28;20677;-66
2023/10/24 03:23:34;;;;;;;6.30;4.68;;;11.60;99.90;;;-141.84;88.95;15138.16;4984731;28;20224;-66
2023/10/24 03:26:06;;;;;;;9.07;5.40;;;11.50;99.90;;;-141.84;89.07;15097.56;4978086;28;20258;-66
2023/10/24 03:28:34;;;;;;;7.33;5.03;;;11.50;99.90;;;-141.84;89.03;15125.97;4985926;28;20239;-66
2023/10/24 03:31:03;;;;;;;8.80;4.97;;;11.50;99.90;;;-141.84;89.09;15091.47;4984546;28;20231;-66
2023/10/24 03:33:32;;;;;;;6.90;5.30;;;11.40;99.90;;;-141.84;89.05;15105.69;4984774;28;20204;-66
2023/10/24 03:36:00;;;;;;;6.60;5.20;;;11.40;99.90;;;-141.84;89.32;15123.94;4977893;28;20266;-66
2023/10/24 03:38:31;;;;;;;7.97;5.20;;;11.30;99.90;;;-141.84;89.63;15103.66;4984612;28;20784;-67
2023/10/24 03:41:00;;;;;;;8.00;4.93;;;11.30;99.90;;;-141.84;90.22;15138.16;4985429;28;20326;-65
2023/10/24 03:43:28;;;;;;;6.10;5.30;;;11.20;99.90;;;-141.84;90.82;15150.34;4985002;28;20227;-67
2023/10/24 03:45:57;;;;;;;11.10;5.97;;;11.20;99.90;;;-141.84;91.21;15184.84;4981819;28;20233;-66
2023/10/24 03:48:25;;;;;;;8.33;5.40;;;11.20;99.90;;;-141.84;91.95;15422.34;4979536;28;20212;-67
2023/10/24 03:50:53;;;;;;;7.10;5.80;;;11.20;99.90;;;-141.84;92.58;15739.06;4984102;28;20332;-66
2023/10/24 03:53:21;;;;;;;8.03;5.70;;;11.20;99.90;;;-141.84;92.90;16128.88;4983640;28;20326;-66
2023/10/24 03:55:58;;;;;;;7.27;5.67;;;11.10;99.90;;;-141.84;92.80;16423.31;4984557;28;20305;-67
2023/10/24 03:58:27;;;;;;;6.47;5.23;;;11.00;99.90;;;-141.84;93.48;17353.44;4983728;28;20235;-67
2023/10/24 04:00:56;;;;;;;7.93;5.20;;;11.10;99.90;;;-141.84;93.65;19009.09;4984055;28;20310;-66
2023/10/24 04:03:24;;;;;;;8.90;5.47;;;11.10;99.90;;;-141.84;92.66;16736.03;4984185;28;20207;-67
2023/10/24 04:05:52;;;;;;;7.07;5.40;;;11.20;99.90;;;-141.84;92.83;16545.16;4984834;28;20314;-67
2023/10/24 04:08:20;;;;;;;7.30;5.40;;;11.20;99.90;;;-141.84;93.06;16977.69;4977771;28;20266;-66
2023/10/24 04:10:48;;;;;;;10.27;6.20;;;11.10;99.90;;;-141.84;93.17;17290.47;4984803;28;20317;-66
2023/10/24 04:13:18;;;;;;;9.67;6.43;;;11.10;99.90;;;-141.84;93.10;17501.69;4984614;28;20227;-67
2023/10/24 04:15:46;;;;;;;6.43;5.77;;;11.10;99.90;;;-141.84;93.24;18163.91;4984382;28;20281;-67
2023/10/24 04:18:14;;;;;;;6.50;5.70;;;11.10;99.90;;;-141.84;92.68;17452.97;4976700;28;20274;-66
2023/10/24 04:20:43;;;;;;;11.23;6.07;;;11.20;99.90;;;-141.84;91.39;15759.38;4967657;28;20242;-67
2023/10/24 04:23:14;;;;;;;7.13;5.37;;;11.30;99.90;;;-141.84;90.87;15534.00;4970594;28;20317;-67
2023/10/24 04:25:43;;;;;;;8.37;5.80;;;11.40;99.90;;;-141.84;91.14;15621.31;4984275;28;20257;-66
2023/10/24 04:28:12;;;;;;;7.63;5.37;;;11.30;99.90;;;-141.84;91.28;15601.00;4976753;28;20235;-66
2023/10/24 04:30:42;;;;;;;7.70;5.30;;;11.40;99.90;;;-141.84;91.50;15765.47;4984581;28;20638;-68
2023/10/24 04:33:10;;;;;;;8.90;5.43;;;11.50;99.90;;;-141.84;90.54;15497.47;4975436;28;20241;-66
2023/10/24 04:35:43;;;;;;;6.38;4.97;;;11.50;99.90;;;-141.84;90.36;15438.59;4980757;28;20722;-66
2023/10/24 04:38:11;;;;;;;6.37;4.97;;;11.50;99.90;;;-141.84;90.43;15420.34;4975997;28;20289;-66
2023/10/24 04:40:40;;;;;;;8.73;5.80;;;11.50;99.90;;;-141.84;90.84;15509.66;4983194;28;20325;-66
2023/10/24 04:43:09;;;;;;;7.70;5.28;;;11.60;99.90;;;-141.84;90.98;15584.78;4984368;28;20444;-67
2023/10/24 04:45:42;;;;;;;7.07;5.50;;;11.60;99.90;;;-141.84;90.24;15462.97;4984550;28;20227;-67
2023/10/24 04:48:10;;;;;;;10.43;5.57;;;11.60;99.90;;;-141.84;89.43;15398.00;4956185;28;20223;-67
2023/10/24 04:50:40;;;;;;;7.63;5.77;;;11.60;99.90;;;-141.84;89.74;15367.56;4980852;28;20234;-67
2023/10/24 04:53:08;;;;;;;8.93;5.40;;;11.60;99.90;;;-141.84;89.72;15361.47;4983118;28;20325;-67
2023/10/24 04:55:39;;;;;;;7.73;5.37;;;11.60;99.90;;;-141.84;89.91;15385.81;4983960;28;20677;-65
2023/10/24 04:58:08;;;;;;;7.37;5.20;;;11.60;99.90;;;-141.84;90.22;15418.31;4975949;28;20227;-66
2023/10/24 05:00:36;;;;;;;7.10;5.77;;;11.50;99.90;;;-141.84;90.52;15452.81;4984421;28;20254;-66
2023/10/24 05:03:20;;;;;;;8.40;5.90;;;11.50;99.90;;;-141.84;90.94;15566.50;4952766;28;20241;-66
2023/10/24 05:05:49;;;;;;;6.33;5.30;;;11.50;99.90;;;-141.84;91.02;15607.09;4945204;28;20339;-67
2023/10/24 05:08:17;;;;;;;6.73;5.13;;;11.50;99.90;;;-141.84;91.10;15676.13;4949766;28;20290;-67
2023/10/24 05:10:47;;;;;;;6.67;5.33;;;11.50;99.90;;;-141.84;90.87;15605.06;4963886;28;20235;-66
2023/10/24 05:13:15;;;;;;;7.40;6.53;;;11.50;99.90;;;-141.84;90.43;15564.47;4963856;28;20232;-66
2023/10/24 05:15:45;;;;;;;7.40;4.93;;;11.50;99.90;;;-141.84;90.25;15440.63;4969573;28;20233;-67
2023/10/24 05:18:13;;;;;;;7.60;5.27;;;11.60;99.90;;;-141.84;89.58;15454.84;4956149;28;20212;-66
2023/10/24 05:20:43;;;;;;;7.63;5.60;;;11.60;99.90;;;-141.84;88.83;15414.25;4964142;28;20236;-66
2023/10/24 05:23:11;;;;;;;6.70;4.73;;;11.70;99.90;;;-141.84;88.56;15393.94;4963893;28;20259;-66
2023/10/24 05:25:41;;;;;;;6.53;5.27;;;11.70;99.90;;;-141.84;89.33;15387.84;4971588;28;20342;-66
2023/10/24 05:28:11;;;;;;;6.28;5.55;;;11.70;99.90;;;-141.84;89.83;15369.56;4976107;28;20231;-67
2023/10/24 05:30:40;;;;;;;6.20;5.40;;;11.60;99.90;;;-141.84;90.09;15446.72;4983470;28;20211;-67
2023/10/24 05:33:08;;;;;;;11.13;6.10;;;11.60;99.90;;;-141.84;90.18;15469.06;4982698;28;20758;-66
2023/10/24 05:35:36;;;;;;;7.93;5.28;;;11.60;99.90;;;-141.84;90.21;15485.28;4983296;28;20231;-67
2023/10/24 05:38:06;;;;;;;7.80;6.30;;;11.60;99.90;;;-141.84;90.45;15531.97;4975557;28;20227;-66
2023/10/24 05:40:34;;;;;;;9.00;5.93;;;11.60;99.90;;;-141.84;90.59;15513.72;4983132;28;20317;-66
2023/10/24 05:43:02;;;;;;;8.25;5.82;;;11.60;99.90;;;-141.84;90.66;15560.41;4983740;28;20223;-66
2023/10/24 05:45:30;;;;;;;7.47;5.20;;;11.60;99.90;;;-141.84;91.28;15763.44;4983780;28;20310;-66
2023/10/24 05:47:59;;;;;;;6.95;5.68;;;11.60;99.90;;;-141.84;91.51;15984.72;4956925;28;20235;-66
2023/10/24 05:50:29;;;;;;;6.73;5.70;;;11.60;99.90;;;-141.84;90.60;15676.13;4963918;28;20228;-66
2023/10/24 05:52:58;;;;;;;8.03;5.30;;;11.70;99.90;;;-141.84;90.85;15645.69;4963691;28;20310;-66
2023/10/24 05:55:27;;;;;;;6.33;5.63;;;11.70;99.90;;;-141.84;91.23;15842.59;4964207;28;20231;-66
2023/10/24 05:57:55;;;;;;;7.37;5.73;;;11.70;99.90;;;-141.84;91.37;15970.50;4963792;28;20204;-66
2023/10/24 06:00:24;;;;;;;6.60;5.73;;;11.70;99.90;;;-141.84;91.64;16244.63;4961383;28;20239;-67
2023/10/24 06:02:52;;;;;;;5.90;5.32;;;11.70;99.90;;;-141.84;91.81;16522.81;4962860;28;20224;-67
2023/10/24 06:05:20;;;;;;;6.93;5.70;;;11.70;99.90;;;-141.84;91.96;16857.88;4964024;28;20850;-66
2023/10/24 06:07:48;;;;;;;9.10;6.00;;;11.70;99.90;;;-141.84;92.51;17761.69;4964660;28;20263;-66
2023/10/24 06:10:17;;;;;;;7.70;5.47;;;11.70;99.90;;;-141.84;92.69;18419.88;4956945;28;20903;-67
2023/10/24 06:12:46;;;;;;;8.70;5.77;;;11.70;99.90;;;-141.84;92.42;18436.16;4951564;28;20212;-67
2023/10/24 06:15:14;;;;;;;8.82;6.43;;;11.70;99.90;;;-141.84;92.19;17440.78;4944922;28;20205;-67
2023/10/24 06:17:42;;;;;;;8.40;6.37;;;11.80;99.90;;;-141.84;92.32;17725.13;4943893;28;20331;-67
2023/10/24 06:20:11;;;;;;;5.53;5.00;;;11.70;99.90;;;-141.84;92.37;17855.13;4936864;28;20229;-66
2023/10/24 06:22:40;;;;;;;8.02;5.80;;;11.70;99.90;;;-141.84;92.18;17530.13;4963214;28;20671;-66
2023/10/24 06:25:10;;;;;;;9.80;6.55;;;11.80;99.90;;;-141.84;92.10;17485.44;4982578;28;20234;-66
2023/10/24 06:27:38;;;;;;;7.93;6.05;;;11.80;99.90;;;-141.84;91.82;17373.75;4982716;28;20227;-66
2023/10/24 06:30:09;;;;;;;7.65;6.03;;;11.80;99.90;;;-141.84;91.32;16220.25;4965728;28;20220;-65
2023/10/24 06:32:39;;;;;;;7.95;5.75;;;11.90;99.90;;;-141.84;90.59;15763.44;4968969;28;20232;-66
2023/10/24 06:35:09;;;;;;;8.18;5.50;;;11.90;99.90;;;-141.84;90.85;15905.53;4970081;28;20228;-66
2023/10/24 06:37:37;;;;;;;7.85;5.72;;;12.00;99.90;;;-141.84;90.48;15730.94;4972735;28;20235;-66
2023/10/24 06:40:11;;;;;;;7.47;6.10;;;12.00;99.90;;;-141.84;90.37;15698.47;4966617;28;20419;-66
2023/10/24 06:42:39;;;;;;;7.85;5.47;;;12.00;99.90;;;-141.84;90.07;15698.47;4983744;28;20199;-66
2023/10/24 06:45:10;;;;;;;9.00;5.60;;;12.10;99.90;;;-141.84;89.41;15540.09;4961365;28;20220;-67
2023/10/24 06:47:40;;;;;;;6.15;5.13;;;12.10;99.90;;;-141.84;89.77;15554.31;4981743;28;20314;-66
2023/10/24 06:50:09;;;;;;;6.67;5.60;;;12.10;99.90;;;-141.84;89.57;15582.75;4978451;28;20770;-67
2023/10/24 06:52:38;;;;;;;7.55;5.68;;;12.20;99.90;;;-141.84;88.56;15564.47;4985992;28;20308;-65
2023/10/24 06:55:07;;;;;;;7.88;4.88;;;12.20;99.90;;;-141.84;88.24;15544.16;4985866;28;20580;-62
2023/10/24 06:57:35;;;;;;;7.75;5.28;;;12.30;99.90;;;-141.84;88.10;15556.34;4986112;28;20207;-62
2023/10/24 07:00:05;;;;;;;5.75;5.15;;;12.30;99.90;;;-141.84;88.03;15538.06;4978013;28;20312;-67
2023/10/24 07:02:34;;;;;;;6.22;4.82;;;12.40;99.90;;;-141.84;87.55;15592.88;4984252;28;20226;-66
2023/10/24 07:05:03;;;;;;;7.68;5.70;;;12.40;99.90;;;-141.84;87.55;15596.94;4985933;28;20711;-67
2023/10/24 07:07:31;;;;;;;5.93;5.25;;;12.40;99.90;;;-141.84;84.89;16041.59;4985076;28;20263;-67
2023/10/24 07:09:59;;;;;;;6.25;5.38;;;12.50;99.90;;;-141.84;83.77;16346.16;4958919;28;20208;-66
2023/10/24 07:12:28;;;;;;;7.97;6.10;;;12.60;99.90;;;-141.84;83.29;16541.09;4966692;28;20208;-67
2023/10/24 07:14:56;;;;;;;6.07;4.75;;;12.70;99.90;;;-141.84;83.73;16364.44;4966327;28;20239;-66
2023/10/24 07:17:24;;;;;;;10.85;4.68;;;12.70;99.90;;;-141.84;83.52;16415.19;4965451;28;20243;-66
2023/10/24 07:19:54;;;;;;;5.18;4.68;;;12.80;99.90;;;-141.84;83.18;16591.84;4966394;28;20228;-67
2023/10/24 07:22:22;;;;;;;6.30;4.50;;;12.80;99.90;;;-141.84;83.31;16431.44;4961129;28;20236;-66
2023/10/24 07:24:50;;;;;;;4.85;4.22;;;12.90;99.90;;;-141.84;83.66;16370.50;4984855;28;20218;-67
2023/10/24 07:27:18;;;;;;;4.93;4.50;;;12.90;99.90;;;-141.84;82.52;16752.28;4985507;28;20294;-66
2023/10/24 07:29:47;;;;;;;5.13;4.63;;;13.00;99.90;;;-141.84;82.22;16833.50;4985281;28;20269;-67
2023/10/24 07:32:15;;;;;;;6.45;4.72;;;13.00;99.90;;;-141.84;81.90;16953.34;4976225;28;20235;-66
2023/10/24 07:34:44;;;;;;;9.52;4.72;;;13.10;99.90;;;-141.84;81.67;17071.13;4985400;28;20619;-66
2023/10/24 07:37:13;;;;;;;7.63;4.82;;;13.10;99.90;;;-141.84;81.09;17359.53;4985092;28;20227;-66
2023/10/24 07:39:41;;;;;;;4.72;4.30;;;13.10;99.90;;;-141.84;81.08;17406.25;4985648;28;20235;-67
2023/10/24 07:42:10;;;;;;;4.97;4.47;;;13.20;99.90;;;-141.84;80.92;17387.97;4977286;28;20274;-66
2023/10/24 07:44:38;;;;;;;5.93;4.97;;;13.20;99.90;;;-141.84;80.82;17418.44;4984638;28;20227;-67
2023/10/24 07:47:07;;;;;;;6.15;4.40;;;13.30;99.90;;;-141.84;80.59;17517.94;4983803;28;20231;-67
2023/10/24 07:49:36;;;;;;;6.07;4.38;;;13.30;99.90;;;-141.84;80.50;17580.91;4984921;28;20235;-68
2023/10/24 07:52:05;;;;;;;5.30;4.20;;;13.30;99.90;;;-141.84;80.39;17558.56;4976347;28;20286;-67
2023/10/24 07:54:35;;;;;;;5.60;4.55;;;13.40;99.90;;;-141.84;79.43;18003.44;4984772;28;20238;-67
2023/10/24 07:57:04;;;;;;;6.22;5.00;;;13.40;99.90;;;-141.84;77.91;18551.94;4983690;28;20239;-67
2023/10/24 07:59:34;;;;;;;7.82;5.18;;;13.50;99.90;;;-141.84;77.48;18659.63;4984764;28;20238;-68
2023/10/24 08:02:02;;;;;;;5.45;4.50;;;13.50;99.90;;;-141.84;77.56;18665.72;4976644;28;20634;-62
2023/10/24 08:04:31;;;;;;;6.82;4.68;;;13.60;99.90;;;-141.84;77.44;18696.19;4983854;28;20675;-62
2023/10/24 08:07:00;;;;;;;6.50;4.72;;;13.60;99.90;;;-141.84;77.28;18692.13;4984046;28;20242;-63
2023/10/24 08:09:28;;;;;;;9.18;4.18;;;13.60;99.90;;;-141.84;75.43;19212.31;4985075;28;20203;-62
2023/10/24 08:11:58;;;;;;;4.88;4.38;;;13.80;99.90;;;-141.84;75.75;19187.91;4982584;28;20238;-62
2023/10/24 08:14:26;;;;;;;6.32;4.35;;;13.80;99.90;;;-141.84;76.03;19070.06;4984666;28;20334;-63
2023/10/24 08:16:54;;;;;;;5.95;4.50;;;13.80;99.90;;;-141.84;76.16;19045.69;4984365;28;20231;-62
2023/10/24 08:19:22;;;;;;;5.80;4.45;;;13.90;99.90;;;-141.84;76.41;18996.91;4984500;28;20238;-62
2023/10/24 08:21:51;;;;;;;4.68;3.78;;;13.90;99.90;;;-141.84;76.67;18948.16;4983876;28;20203;-63
2023/10/24 08:24:19;;;;;;;7.00;4.55;;;14.00;99.90;;;-141.84;76.73;18907.50;4977140;28;20211;-62
2023/10/24 08:26:47;;;;;;;4.90;4.20;;;14.10;99.90;;;-141.84;76.74;18944.09;4981040;28;20231;-62
2023/10/24 08:29:37;;;;;;;5.80;4.57;;;14.20;99.90;;;-141.84;76.31;19039.59;4983024;28;20231;-63
2023/10/24 08:32:06;;;;;;;7.65;4.55;;;14.20;99.90;;;-141.84;74.71;19352.53;4975097;28;20710;-62
2023/10/24 08:34:41;;;;;;;7.32;4.65;;;14.40;99.90;;;-141.84;74.06;19500.88;4983519;28;20590;-62
2023/10/24 08:37:10;;;;;;;5.47;4.30;;;14.50;99.90;;;-141.84;74.43;19448.03;4983378;28;20231;-62
2023/10/24 08:39:38;;;;;;;8.13;4.88;;;14.60;99.90;;;-141.84;73.04;19610.59;4983744;28;20633;-61
2023/10/24 08:42:08;;;;;;;5.40;3.92;;;14.80;99.90;;;-141.84;72.70;19651.25;4961078;28;20228;-63
2023/10/24 08:44:39;;;;;;;7.45;4.68;;;14.90;99.90;;;-141.84;71.36;19724.41;4979173;28;20726;-62
2023/10/24 08:47:09;;;;;;;6.75;4.53;;;15.00;99.90;;;-141.84;71.27;19746.78;4983759;28;20237;-62
2023/10/24 08:49:38;;;;;;;4.53;3.90;;;15.00;99.90;;;-141.84;71.69;19724.41;4984144;28;20231;-63
2023/10/24 08:52:07;;;;;;;5.78;3.92;;;15.10;99.90;;;-141.84;71.49;19756.94;4976023;28;20219;-64
2023/10/24 08:54:54;;;;;;;4.53;3.70;;;15.20;99.90;;;-141.84;71.13;19769.13;4983624;28;20298;-63
2023/10/24 08:57:29;;;;;;;4.63;3.60;;;15.30;99.90;;;-141.84;71.43;19799.63;4983624;28;20299;-63
2023/10/24 09:00:01;;;;;;;4.63;3.95;;;15.50;99.90;;;-141.84;71.09;19830.09;4975591;28;20297;-61
2023/10/24 09:02:29;;;;;;;8.63;4.10;;;15.60;99.90;;;-141.84;70.57;19870.75;4983182;28;20266;-62
2023/10/24 09:05:01;;;;;;;4.80;3.97;;;15.70;99.90;;;-141.84;68.03;19964.25;4982961;28;20831;-62
2023/10/24 09:07:29;;;;;;;5.88;4.28;;;15.80;99.90;;;-141.84;68.46;19960.16;4983873;28;20608;-64
2023/10/24 09:09:58;;;;;;;6.15;4.28;;;15.80;99.90;;;-141.84;68.79;19929.69;4976609;28;20207;-62
2023/10/24 09:12:30;;;;;;;6.97;4.97;;;15.80;99.90;;;-141.84;69.79;19860.59;4983065;28;20311;-63
2023/10/24 09:15:00;;;;;;;6.05;4.40;;;15.70;99.90;;;-141.84;69.13;19909.34;4983379;28;20269;-62
2023/10/24 09:17:32;;;;;;;7.57;4.53;;;15.60;99.90;;;-141.84;69.19;19909.34;4983492;28;20310;-61
2023/10/24 09:20:00;;;;;;;5.10;4.60;;;15.60;99.90;;;-141.84;67.71;19972.38;4973051;28;20250;-63
2023/10/24 09:22:30;;;;;;;5.10;4.05;;;15.70;99.90;;;-141.84;68.17;19974.41;4982933;28;20243;-63
2023/10/24 09:24:59;;;;;;;4.88;3.85;;;15.80;99.90;;;-141.84;68.41;19950.00;4983022;28;20603;-64
2023/10/24 09:27:28;;;;;;;5.68;3.95;;;15.80;99.90;;;-141.84;67.33;19974.41;4983437;28;20344;-62
2023/10/24 09:29:56;;;;;;;7.88;4.20;;;16.00;99.90;;;-141.84;67.31;19968.31;4978104;28;20293;-62
2023/10/24 09:32:27;;;;;;;4.78;3.97;;;15.80;99.90;;;-141.84;67.93;19952.03;4980199;28;20263;-62
2023/10/24 09:34:55;;;;;;;5.53;3.88;;;15.80;99.90;;;-141.84;68.73;19927.66;4982930;28;20245;-63
2023/10/24 09:37:24;;;;;;;6.88;5.00;;;15.80;99.90;;;-141.84;68.85;19960.16;4983280;28;20251;-63
2023/10/24 09:39:57;;;;;;;5.22;4.72;;;15.70;99.90;;;-141.84;69.67;19846.34;4982765;28;20199;-63
2023/10/24 09:42:27;;;;;;;5.75;4.10;;;15.60;99.90;;;-141.84;70.16;19862.63;4982531;28;20318;-63
2023/10/24 09:45:02;;;;;;;4.80;4.18;;;15.60;99.90;;;-141.84;69.60;19899.19;4980057;28;20262;-63
2023/10/24 09:47:33;;;;;;;5.15;4.32;;;15.60;99.90;;;-141.84;69.67;19895.13;4981691;28;20485;-67
2023/10/24 09:50:05;;;;;;;7.35;4.07;;;15.80;99.90;;;-141.84;68.99;19931.72;4975423;28;20466;-66
2023/10/24 09:52:33;;;;;;;9.75;4.55;;;15.80;99.90;;;-141.84;68.33;19966.28;4982805;28;20227;-67
2023/10/24 09:55:03;;;;;;;7.60;4.68;;;15.90;99.90;;;-141.84;68.26;19941.88;4982735;28;20247;-67
2023/10/24 09:57:33;;;;;;;6.38;4.30;;;16.00;99.90;;;-141.84;68.39;19976.44;4980895;28;20743;-68
2023/10/24 10:00:05;;;;;;;4.43;4.03;;;15.90;99.90;;;-141.84;68.86;19935.78;4974417;28;20285;-66
2023/10/24 10:02:40;;;;;;;7.15;3.90;;;15.80;99.90;;;-141.84;69.29;19927.66;4980911;28;20355;-67
2023/10/24 10:05:09;;;;;;;5.78;4.03;;;15.80;99.90;;;-141.84;69.78;19891.06;4983240;28;20234;-68
2023/10/24 10:07:40;;;;;;;4.75;4.10;;;15.70;99.90;;;-141.84;70.33;19864.66;4983227;28;20244;-66
2023/10/24 10:10:12;;;;;;;5.35;4.15;;;15.70;99.90;;;-141.84;69.45;19903.25;4975351;28;20234;-66
2023/10/24 10:12:42;;;;;;;6.53;4.07;;;15.70;99.90;;;-141.84;69.92;19893.09;4973969;28;20222;-66